Airfield :
LOGIN :

Register | Disclaimer

   EN    FR    IT 

 










Legend :    VFR   Marginal VFR   IFR   Intensive IFR   Very Intensive IFR
Visi :
Ceiling :
>= 8 km
>= 3000ft
5 to 8 km
1000 to 3000 ft
1500m to 5 km
500 to 1000 ft
800 to 1500m
200 to 500 ft
< 800m
< 200 ft
Symbols :   Thunderstorms  Fog  Heavy snow  Heavy precipitations  Wind > 20 kt
SIGMETs :     Misc.  Thunderstorms  Icing  Turbulence  Mountain Waves  Volcanic Ashes







- Airport Elevation : 844 ft
- IATA code : OSR


LKMT - Ostrava-Mosnov

CURRENT METAR :
  • 220830Z 03017KT 7000 FEW023 M03/M06 Q1020 NOSIG

EXPIRED METARs :
  • 220800Z 03014KT 5000 BR FEW016 SCT035 M03/M05 Q1020 NOSIG
  • 220730Z 03015KT 5000 BR SCT016 OVC022 M03/M05 Q1020 NOSIG
  • 220700Z 03016KT 5000 BR FEW018 BKN035 M03/M05 Q1020 BECMG 7000 NSW
  • 220630Z 02016KT 5000 BR BKN018 OVC032 M03/M05 Q1020 NOSIG
  • 220600Z 02014KT 5000 -SN BR SCT017 OVC033 M03/M05 Q1020 NOSIG

TAF TAF LKMT
Valid from the 22 at 06:00 until the 23 at 12:00 UTC


220500Z 2206/2312 03012KT 7000 BKN035
TEMPO 2206/2306 05016G28KT
PROB30
TEMPO 2206/2312 3000 -SN BKN012
No reported NOTAMs for that airfield.



MET'MAP, your aeronautical weather chart ! - Copyright ORBIFLY December 2007 - Disclaimer

ORBIFLY MET'MAP TEAM :

Programming & Development : Alexandra Zaïnal
Concept & Development : Baudouin d'Aumeries
Co-Development & Prog : Marc-Olivier Méhu
Technical & hardware support : Manuel Goepfert

Contact : metmap@orbifly.com




SOURCES & CREDITS :

   NOAA